createdAt,value
2018-03-04T00:00:23.719Z,4.67
2018-03-04T00:02:52.747Z,4.77
2018-03-04T00:05:21.071Z,4.63
2018-03-04T00:07:49.645Z,4.30
2018-03-04T00:10:18.147Z,4.47
2018-03-04T00:12:47.483Z,5.90
2018-03-04T00:15:15.719Z,4.20
2018-03-04T00:17:44.254Z,4.47
2018-03-04T00:20:12.679Z,4.27
2018-03-04T00:22:42.838Z,4.17
2018-03-04T00:25:11.087Z,4.23
2018-03-04T00:27:40.297Z,4.80
2018-03-04T00:30:09.319Z,4.90
2018-03-04T00:32:37.840Z,4.33
2018-03-04T00:35:05.909Z,4.33
2018-03-04T00:37:34.155Z,4.20
2018-03-04T00:40:03.381Z,4.93
2018-03-04T00:42:31.700Z,4.60
2018-03-04T00:44:59.799Z,4.70
2018-03-04T00:47:28.345Z,4.63
2018-03-04T00:49:57.525Z,4.90
2018-03-04T00:52:25.470Z,4.60
2018-03-04T00:54:55.374Z,4.53
2018-03-04T00:57:23.655Z,4.73
2018-03-04T00:59:52.764Z,4.87
2018-03-04T01:02:20.887Z,4.47
2018-03-04T01:04:49.830Z,4.80
2018-03-04T01:07:20.326Z,4.50
2018-03-04T01:09:48.922Z,4.93
2018-03-04T01:12:17.915Z,4.53
2018-03-04T01:14:46.462Z,4.53
2018-03-04T01:17:14.675Z,4.43
2018-03-04T01:19:43.512Z,4.57
2018-03-04T01:22:11.596Z,4.50
2018-03-04T01:24:40.117Z,5.17
2018-03-04T01:27:09.289Z,5.00
2018-03-04T01:29:39.222Z,4.43
2018-03-04T01:32:07.999Z,4.87
2018-03-04T01:34:37.019Z,5.00
2018-03-04T01:37:05.809Z,4.80
2018-03-04T01:39:35.283Z,4.67
2018-03-04T01:42:04.284Z,4.33
2018-03-04T01:44:33.639Z,4.33
2018-03-04T01:47:02.192Z,4.80
2018-03-04T01:49:30.710Z,4.57
2018-03-04T01:51:58.701Z,4.90
2018-03-04T01:57:18.550Z,4.20
2018-03-04T01:59:46.266Z,4.60
2018-03-04T02:02:14.530Z,4.50
2018-03-04T02:04:42.604Z,4.10
2018-03-04T02:07:10.155Z,4.87
2018-03-04T02:09:37.831Z,4.60
2018-03-04T02:12:07.223Z,4.70
2018-03-04T02:14:36.356Z,4.50
2018-03-04T02:17:04.965Z,3.90
2018-03-04T02:19:34.309Z,4.00
2018-03-04T02:22:01.966Z,4.20
2018-03-04T02:24:30.010Z,4.30
2018-03-04T02:26:58.627Z,4.33
2018-03-04T02:29:26.842Z,4.60
2018-03-04T02:31:55.456Z,4.03
2018-03-04T02:34:23.011Z,4.27
2018-03-04T02:36:50.585Z,3.83
2018-03-04T02:39:18.138Z,3.63
2018-03-04T02:41:46.516Z,4.20
2018-03-04T02:44:16.532Z,4.50
2018-03-04T02:46:45.020Z,4.10
2018-03-04T02:49:12.579Z,4.53
2018-03-04T02:51:40.167Z,4.20
2018-03-04T02:54:08.535Z,3.83
2018-03-04T02:56:36.131Z,3.87
2018-03-04T02:59:03.699Z,4.20
2018-03-04T03:01:31.432Z,4.13
2018-03-04T03:03:59.047Z,4.10
2018-03-04T03:06:26.630Z,3.80
2018-03-04T03:08:54.187Z,3.93
2018-03-04T03:11:21.773Z,3.87
2018-03-04T03:13:50.094Z,4.13
2018-03-04T03:16:17.656Z,4.43
2018-03-04T03:18:45.211Z,4.07
2018-03-04T03:21:12.807Z,4.23
2018-03-04T03:23:40.368Z,4.80
2018-03-04T03:26:07.950Z,4.17
2018-03-04T03:28:36.377Z,4.20
2018-03-04T03:31:04.649Z,3.83
2018-03-04T03:33:32.214Z,3.97
2018-03-04T03:35:59.794Z,3.90
2018-03-04T03:38:27.355Z,3.50
2018-03-04T03:40:54.978Z,4.30
2018-03-04T03:43:22.634Z,4.23
2018-03-04T03:45:50.386Z,4.10
2018-03-04T03:48:17.946Z,4.00
2018-03-04T03:50:45.535Z,3.97
2018-03-04T03:53:13.091Z,3.80
2018-03-04T03:55:40.664Z,4.00
2018-03-04T03:58:08.226Z,4.37
2018-03-04T04:00:35.851Z,3.67
2018-03-04T04:03:03.419Z,4.13
2018-03-04T04:05:31.074Z,3.93
2018-03-04T04:07:58.632Z,3.80
2018-03-04T04:10:26.219Z,3.97
2018-03-04T04:12:53.783Z,4.10
2018-03-04T04:15:22.132Z,4.47
2018-03-04T04:17:49.683Z,3.70
2018-03-04T04:20:17.337Z,4.33
2018-03-04T04:22:45.016Z,3.80
2018-03-04T04:25:12.609Z,3.93
2018-03-04T04:27:40.956Z,4.33
2018-03-04T04:30:08.535Z,4.20
2018-03-04T04:32:37.026Z,3.93
2018-03-04T04:35:05.382Z,4.23
2018-03-04T04:37:32.954Z,4.27
2018-03-04T04:40:01.375Z,4.00
2018-03-04T04:42:28.967Z,3.80
2018-03-04T04:44:56.540Z,3.93
2018-03-04T04:47:24.896Z,3.93
2018-03-04T04:49:53.216Z,3.87
2018-03-04T04:52:20.910Z,4.20
2018-03-04T04:54:48.479Z,4.10
2018-03-04T04:57:16.078Z,3.73
2018-03-04T04:59:44.503Z,3.90
2018-03-04T05:02:12.079Z,3.90
2018-03-04T05:04:40.645Z,4.10
2018-03-04T05:07:08.203Z,3.90
2018-03-04T05:09:35.766Z,3.80
2018-03-04T05:12:03.318Z,3.90
2018-03-04T05:14:31.004Z,4.30
2018-03-04T05:16:58.571Z,3.87
2018-03-04T05:19:26.238Z,4.23
2018-03-04T05:21:53.899Z,4.30
2018-03-04T05:24:22.227Z,3.97
2018-03-04T05:26:49.777Z,3.73
2018-03-04T05:29:17.338Z,3.43
2018-03-04T05:31:44.891Z,3.77
2018-03-04T05:34:12.458Z,4.10
2018-03-04T05:36:40.122Z,3.80
2018-03-04T05:39:07.678Z,3.90
2018-03-04T05:41:35.234Z,3.17
2018-03-04T05:44:02.899Z,3.80
2018-03-04T05:46:30.458Z,3.77
2018-03-04T05:48:58.019Z,3.60
2018-03-04T05:51:25.579Z,3.63
2018-03-04T05:53:53.138Z,3.73
2018-03-04T05:56:20.687Z,3.50
2018-03-04T05:58:48.246Z,3.90
2018-03-04T06:01:15.803Z,3.97
2018-03-04T06:03:43.362Z,3.83
2018-03-04T06:06:10.918Z,3.60
2018-03-04T06:08:38.642Z,3.77
2018-03-04T06:11:06.235Z,3.73
2018-03-04T06:13:33.799Z,3.90
2018-03-04T06:16:01.387Z,3.87
2018-03-04T06:18:29.710Z,3.73
2018-03-04T06:20:57.291Z,3.63
2018-03-04T06:23:24.870Z,3.77
2018-03-04T06:25:52.508Z,3.70
2018-03-04T06:28:20.089Z,3.70
2018-03-04T06:30:47.720Z,3.50
2018-03-04T06:33:15.379Z,3.80
2018-03-04T06:35:42.934Z,4.27
2018-03-04T06:38:10.507Z,3.80
2018-03-04T06:40:38.135Z,3.83
2018-03-04T06:43:05.718Z,3.90
2018-03-04T06:45:33.396Z,3.80
2018-03-04T06:48:00.998Z,3.90
2018-03-04T06:50:28.573Z,3.77
2018-03-04T06:52:56.146Z,3.73
2018-03-04T06:55:23.702Z,3.60
2018-03-04T06:57:51.316Z,3.90
2018-03-04T07:00:19.659Z,4.00
2018-03-04T07:02:47.247Z,3.70
2018-03-04T07:05:14.818Z,3.73
2018-03-04T07:07:43.177Z,3.53
2018-03-04T07:10:10.803Z,3.70
2018-03-04T07:12:38.780Z,3.90
2018-03-04T07:15:06.377Z,3.77
2018-03-04T07:17:33.968Z,3.53
2018-03-04T07:20:01.523Z,3.60
2018-03-04T07:22:29.137Z,3.23
2018-03-04T07:24:56.793Z,3.83
2018-03-04T07:27:24.412Z,3.67
2018-03-04T07:29:51.987Z,3.33
2018-03-04T07:32:19.575Z,3.57
2018-03-04T07:34:47.230Z,3.50
2018-03-04T07:37:14.866Z,3.43
2018-03-04T07:39:42.432Z,3.80
2018-03-04T07:42:10.021Z,3.83
2018-03-04T07:44:38.506Z,3.43
2018-03-04T07:47:06.933Z,3.50
2018-03-04T07:49:34.490Z,3.53
2018-03-04T07:52:02.071Z,4.03
2018-03-04T07:54:29.634Z,3.57
2018-03-04T07:56:57.254Z,3.77
2018-03-04T07:59:24.925Z,3.37
2018-03-04T08:01:52.581Z,3.77
2018-03-04T08:04:20.147Z,3.20
2018-03-04T08:06:47.800Z,3.67
2018-03-04T08:09:15.350Z,3.40
2018-03-04T08:11:42.937Z,3.57
2018-03-04T08:14:10.495Z,3.70
2018-03-04T08:16:38.490Z,3.43
2018-03-04T08:19:06.833Z,3.40
2018-03-04T08:21:34.386Z,3.50
2018-03-04T08:24:01.967Z,3.60
2018-03-04T08:26:41.494Z,3.40
2018-03-04T08:29:09.079Z,3.70
2018-03-04T08:32:29.824Z,3.37
2018-03-04T08:34:57.747Z,3.60
2018-03-04T08:37:26.193Z,3.83
2018-03-04T08:39:53.830Z,3.87
2018-03-04T08:42:21.420Z,3.43
2018-03-04T08:44:48.994Z,3.77
2018-03-04T08:47:17.370Z,3.70
2018-03-04T08:49:44.933Z,4.30
2018-03-04T08:52:12.494Z,3.97
2018-03-04T08:54:40.822Z,3.63
2018-03-04T08:57:08.475Z,3.47
2018-03-04T08:59:36.035Z,4.00
2018-03-04T09:02:03.596Z,3.73
2018-03-04T09:04:31.172Z,3.60
2018-03-04T09:06:58.731Z,3.70
2018-03-04T09:09:26.320Z,4.20
2018-03-04T09:11:54.691Z,3.40
2018-03-04T09:14:23.138Z,3.70
2018-03-04T09:16:50.791Z,3.33
2018-03-04T09:19:18.375Z,3.60
2018-03-04T09:21:45.931Z,3.60
2018-03-04T09:24:13.515Z,3.80
2018-03-04T09:26:41.077Z,3.60
2018-03-04T09:29:09.429Z,3.60
2018-03-04T09:31:37.153Z,3.40
2018-03-04T09:34:04.828Z,3.87
2018-03-04T09:36:32.395Z,3.80
2018-03-04T09:39:00.036Z,3.87
2018-03-04T09:41:27.596Z,3.33
2018-03-04T09:43:55.255Z,3.50
2018-03-04T09:46:22.919Z,3.90
2018-03-04T09:48:50.511Z,3.60
2018-03-04T09:51:18.143Z,3.90
2018-03-04T09:53:45.727Z,3.97
2018-03-04T09:56:13.295Z,3.37
2018-03-04T09:58:41.730Z,3.57
2018-03-04T10:01:09.392Z,3.30
2018-03-04T10:03:36.975Z,3.70
2018-03-04T10:06:04.536Z,3.67
2018-03-04T10:08:32.139Z,3.37
2018-03-04T10:10:59.707Z,3.43
2018-03-04T10:13:27.287Z,3.50
2018-03-04T10:15:54.944Z,3.70
2018-03-04T10:18:22.523Z,3.70
2018-03-04T10:20:50.079Z,3.33
2018-03-04T10:23:18.806Z,3.60
2018-03-04T10:25:46.364Z,3.43
2018-03-04T10:28:13.944Z,3.80
2018-03-04T10:30:41.506Z,3.70
2018-03-04T10:33:09.088Z,3.77
2018-03-04T10:35:36.652Z,3.53
2018-03-04T10:38:05.109Z,3.37
2018-03-04T10:40:32.667Z,3.60
2018-03-04T10:43:00.418Z,3.60
2018-03-04T10:45:27.987Z,3.60
2018-03-04T10:47:55.563Z,3.40
2018-03-04T10:50:23.501Z,3.40
2018-03-04T10:52:51.074Z,3.53
2018-03-04T10:55:18.631Z,3.73
2018-03-04T10:57:46.308Z,3.80
2018-03-04T11:00:13.874Z,3.40
2018-03-04T11:02:41.621Z,3.60
2018-03-04T11:05:09.204Z,3.80
2018-03-04T11:07:36.768Z,3.80
2018-03-04T11:10:05.128Z,3.80
2018-03-04T11:12:33.451Z,3.40
2018-03-04T11:15:01.049Z,3.57
2018-03-04T11:17:28.613Z,4.20
2018-03-04T11:19:57.706Z,3.73
2018-03-04T11:22:25.282Z,3.80
2018-03-04T11:24:52.883Z,3.53
2018-03-04T11:27:20.467Z,3.80
2018-03-04T11:29:48.418Z,3.83
2018-03-04T11:32:15.989Z,3.77
2018-03-04T11:34:43.700Z,3.80
2018-03-04T11:37:12.031Z,3.60
2018-03-04T11:39:40.535Z,3.60
2018-03-04T11:42:08.167Z,3.57
2018-03-04T11:44:35.747Z,3.30
2018-03-04T11:47:03.384Z,3.93
2018-03-04T11:49:30.971Z,3.63
2018-03-04T11:51:58.532Z,3.57
2018-03-04T11:54:27.638Z,3.70
2018-03-04T11:57:03.027Z,3.90
2018-03-04T11:59:30.703Z,3.87
2018-03-04T12:01:58.388Z,3.93
2018-03-04T12:04:28.923Z,4.03
2018-03-04T12:06:57.264Z,3.50
2018-03-04T12:09:24.877Z,3.80
2018-03-04T12:11:52.444Z,4.03
2018-03-04T12:14:20.140Z,3.80
2018-03-04T12:16:47.828Z,3.73
2018-03-04T12:19:15.559Z,3.77
2018-03-04T12:21:43.136Z,3.30
2018-03-04T12:24:10.745Z,4.33
2018-03-04T12:26:38.324Z,3.63
2018-03-04T12:29:05.907Z,3.83
2018-03-04T12:31:33.536Z,3.60
2018-03-04T12:34:01.129Z,3.60
2018-03-04T12:36:33.286Z,3.63
2018-03-04T12:39:01.848Z,3.47
2018-03-04T12:41:30.794Z,3.70
2018-03-04T12:43:58.842Z,3.97
2018-03-04T12:46:27.386Z,3.97
2018-03-04T12:48:56.156Z,4.07
2018-03-04T12:51:23.759Z,3.90
2018-03-04T12:53:52.266Z,3.90
2018-03-04T12:56:19.963Z,4.17
2018-03-04T12:58:48.659Z,3.70
2018-03-04T13:01:19.826Z,3.83
2018-03-04T13:03:48.696Z,4.20
2018-03-04T13:06:17.744Z,3.73
2018-03-04T13:08:47.970Z,4.13
2018-03-04T13:11:16.466Z,3.93
2018-03-04T13:13:45.290Z,3.93
2018-03-04T13:16:13.928Z,3.37
2018-03-04T13:18:42.027Z,3.70
2018-03-04T13:21:10.301Z,4.03
2018-03-04T13:23:38.968Z,3.90
2018-03-04T13:26:08.052Z,4.03
2018-03-04T13:28:35.712Z,3.97
2018-03-04T13:31:03.343Z,3.90
2018-03-04T13:33:31.677Z,3.60
2018-03-04T13:35:59.282Z,3.80
2018-03-04T13:38:27.622Z,3.60
2018-03-04T13:40:55.309Z,3.93
2018-03-04T13:43:22.948Z,3.93
2018-03-04T13:45:51.012Z,3.37
2018-03-04T13:48:18.583Z,3.90
2018-03-04T13:50:46.151Z,4.00
2018-03-04T13:53:13.721Z,3.40
2018-03-04T13:55:41.355Z,3.70
2018-03-04T13:58:08.932Z,3.73
2018-03-04T14:00:36.515Z,4.10
2018-03-04T14:03:04.988Z,3.40
2018-03-04T14:05:33.390Z,3.60
2018-03-04T14:08:00.976Z,4.10
2018-03-04T14:10:28.672Z,3.80
2018-03-04T14:12:57.076Z,4.20
2018-03-04T14:15:24.675Z,3.57
2018-03-04T14:17:52.293Z,3.77
2018-03-04T14:20:19.982Z,3.73
2018-03-04T14:22:48.623Z,4.00
2018-03-04T14:25:17.758Z,4.07
2018-03-04T14:27:46.174Z,4.00
2018-03-04T14:30:13.763Z,3.77
2018-03-04T14:32:42.129Z,3.83
2018-03-04T14:35:10.559Z,4.23
2018-03-04T14:37:38.336Z,3.50
2018-03-04T14:40:05.900Z,3.70
2018-03-04T14:42:33.602Z,3.67
2018-03-04T14:45:01.209Z,3.77
2018-03-04T14:47:28.786Z,3.30
2018-03-04T14:49:56.384Z,3.60
2018-03-04T14:52:23.978Z,4.23
2018-03-04T14:54:51.627Z,3.67
2018-03-04T14:57:19.243Z,3.70
2018-03-04T14:59:47.579Z,3.80
2018-03-04T15:02:15.198Z,3.50
2018-03-04T15:04:42.841Z,3.50
2018-03-04T15:07:11.167Z,4.20
2018-03-04T15:09:38.802Z,3.90
2018-03-04T15:12:06.359Z,3.43
2018-03-04T15:14:33.979Z,4.10
2018-03-04T15:17:02.310Z,3.60
2018-03-04T15:19:29.907Z,3.77
2018-03-04T15:21:57.487Z,3.60
2018-03-04T15:24:27.027Z,3.60
2018-03-04T15:26:54.594Z,3.90
2018-03-04T15:29:22.160Z,3.50
2018-03-04T15:31:49.804Z,3.70
2018-03-04T15:34:17.489Z,3.50
2018-03-04T15:36:45.087Z,3.43
2018-03-04T15:39:13.423Z,4.07
2018-03-04T15:41:40.996Z,3.47
2018-03-04T15:44:08.574Z,4.07
2018-03-04T15:46:36.143Z,4.83
2018-03-04T15:49:04.564Z,3.53
2018-03-04T15:51:32.235Z,3.90
2018-03-04T15:53:59.791Z,3.73
2018-03-04T15:56:27.360Z,3.60
2018-03-04T15:58:54.923Z,3.30
2018-03-04T16:01:22.482Z,3.47
2018-03-04T16:03:51.636Z,3.73
2018-03-04T16:06:19.513Z,3.53
2018-03-04T16:08:47.087Z,4.10
2018-03-04T16:11:14.736Z,3.63
2018-03-04T16:13:43.315Z,3.70
2018-03-04T16:16:10.988Z,3.73
2018-03-04T16:18:39.646Z,3.47
2018-03-04T16:21:08.861Z,3.63
2018-03-04T16:23:36.430Z,3.33
2018-03-04T16:26:04.023Z,3.63
2018-03-04T16:28:32.904Z,3.33
2018-03-04T16:31:01.383Z,3.50
2018-03-04T16:33:29.769Z,3.60
2018-03-04T16:35:58.125Z,3.60
2018-03-04T16:38:25.696Z,3.53
2018-03-04T16:40:54.026Z,3.60
2018-03-04T16:43:21.653Z,3.37
2018-03-04T16:45:49.950Z,3.50
2018-03-04T16:48:18.562Z,3.30
2018-03-04T16:50:46.129Z,5.37
2018-03-04T16:53:13.706Z,10.33
2018-03-04T16:55:43.263Z,15.73
2018-03-04T16:58:11.124Z,17.93
2018-03-04T17:00:38.776Z,14.37
2018-03-04T17:03:06.642Z,14.13
2018-03-04T17:05:34.292Z,15.67
2018-03-04T17:08:03.638Z,16.43
2018-03-04T17:10:31.347Z,14.83
2018-03-04T17:12:59.126Z,12.43
2018-03-04T17:15:26.996Z,11.80
2018-03-04T17:17:54.632Z,13.47
2018-03-04T17:20:22.626Z,11.20
2018-03-04T17:22:50.370Z,10.47
2018-03-04T17:25:18.416Z,11.20
2018-03-04T17:27:46.061Z,13.10
2018-03-04T17:30:14.429Z,10.13
2018-03-04T17:32:42.049Z,10.40
2018-03-04T17:35:11.029Z,11.43
2018-03-04T17:37:40.825Z,9.20
2018-03-04T17:40:08.917Z,8.97
2018-03-04T17:42:36.536Z,10.13
2018-03-04T17:45:04.866Z,9.57
2018-03-04T17:47:32.522Z,8.80
2018-03-04T17:50:00.117Z,9.07
2018-03-04T17:52:29.808Z,9.17
2018-03-04T17:54:57.639Z,8.93
2018-03-04T17:57:25.222Z,9.27
2018-03-04T17:59:52.785Z,9.93
2018-03-04T18:02:20.437Z,8.07
2018-03-04T18:04:48.033Z,8.57
2018-03-04T18:07:16.368Z,8.83
2018-03-04T18:09:44.128Z,8.23
2018-03-04T18:12:12.019Z,9.37
2018-03-04T18:14:42.521Z,7.83
2018-03-04T18:17:10.763Z,8.63
2018-03-04T18:19:40.328Z,8.60
2018-03-04T18:22:08.159Z,8.03
2018-03-04T18:24:35.801Z,8.27
2018-03-04T18:27:03.620Z,8.43
2018-03-04T18:29:31.192Z,8.07
2018-03-04T18:31:59.568Z,7.70
2018-03-04T18:34:27.989Z,7.80
2018-03-04T18:36:56.518Z,7.97
2018-03-04T18:39:25.405Z,6.97
2018-03-04T18:41:53.024Z,8.00
2018-03-04T18:44:21.322Z,7.50
2018-03-04T18:46:48.951Z,8.30
2018-03-04T18:49:17.432Z,9.63
2018-03-04T18:51:47.112Z,11.67
2018-03-04T18:54:17.419Z,7.77
2018-03-04T18:56:45.430Z,9.37
2018-03-04T18:59:14.113Z,9.27
2018-03-04T19:01:42.620Z,8.10
2018-03-04T19:04:10.207Z,7.80
2018-03-04T19:06:38.833Z,8.00
2018-03-04T19:09:06.447Z,7.63
2018-03-04T19:11:35.090Z,7.90
2018-03-04T19:14:03.032Z,7.70
2018-03-04T19:16:30.617Z,8.80
2018-03-04T19:18:59.953Z,7.87
2018-03-04T19:21:27.713Z,7.17
2018-03-04T19:23:57.035Z,8.50
2018-03-04T19:26:25.031Z,7.10
2018-03-04T19:28:52.737Z,6.90
2018-03-04T19:31:21.818Z,6.97
2018-03-04T19:33:49.451Z,8.37
2018-03-04T19:36:17.050Z,10.47
2018-03-04T19:38:44.870Z,9.00
2018-03-04T19:41:12.625Z,10.23
2018-03-04T19:43:40.215Z,8.10
2018-03-04T19:46:07.883Z,7.67
2018-03-04T19:48:35.449Z,8.30
2018-03-04T19:51:03.025Z,8.70
2018-03-04T19:53:30.593Z,7.73
2018-03-04T19:55:58.943Z,7.27
2018-03-04T19:58:26.555Z,8.90
2018-03-04T20:00:54.117Z,8.40
2018-03-04T20:03:21.690Z,9.47
2018-03-04T20:05:49.493Z,7.23
2018-03-04T20:08:17.828Z,7.90
2018-03-04T20:10:45.405Z,9.03
2018-03-04T20:13:13.339Z,6.87
2018-03-04T20:15:41.732Z,7.90
2018-03-04T20:18:09.339Z,7.27
2018-03-04T20:20:38.162Z,7.90
2018-03-04T20:23:05.767Z,6.60
2018-03-04T20:25:33.378Z,6.40
2018-03-04T20:28:00.985Z,6.63
2018-03-04T20:30:28.572Z,8.90
2018-03-04T20:32:56.253Z,7.40
2018-03-04T20:35:25.795Z,7.70
2018-03-04T20:37:53.448Z,7.07
2018-03-04T20:40:21.023Z,6.70
2018-03-04T20:42:48.969Z,6.97
2018-03-04T20:45:18.220Z,7.20
2018-03-04T20:47:45.822Z,6.60
2018-03-04T20:50:14.465Z,6.93
2018-03-04T20:52:43.150Z,6.27
2018-03-04T20:55:12.092Z,5.93
2018-03-04T20:57:41.161Z,6.37
2018-03-04T21:00:09.121Z,6.57
2018-03-04T21:02:37.709Z,6.77
2018-03-04T21:05:06.846Z,6.03
2018-03-04T21:07:35.482Z,6.70
2018-03-04T21:10:03.661Z,6.43
2018-03-04T21:12:31.229Z,6.73
2018-03-04T21:15:00.116Z,5.57
2018-03-04T21:17:27.764Z,6.17
2018-03-04T21:19:55.436Z,5.50
2018-03-04T21:22:23.102Z,7.23
2018-03-04T21:24:50.752Z,6.47
2018-03-04T21:27:18.306Z,5.90
2018-03-04T21:29:45.901Z,6.77
2018-03-04T21:32:13.576Z,6.23
2018-03-04T21:34:41.909Z,5.83
2018-03-04T21:37:09.468Z,5.77
2018-03-04T21:39:37.027Z,6.17
2018-03-04T21:42:04.592Z,5.97
2018-03-04T21:44:32.161Z,5.67
2018-03-04T21:46:59.795Z,6.57
2018-03-04T21:49:27.365Z,6.50
2018-03-04T21:51:55.017Z,5.60
2018-03-04T21:54:22.576Z,6.30
2018-03-04T21:56:50.282Z,5.40
2018-03-04T21:59:17.899Z,6.90
2018-03-04T22:01:46.055Z,5.83
2018-03-04T22:04:14.465Z,5.80
2018-03-04T22:06:43.773Z,5.80
2018-03-04T22:09:11.405Z,5.67
2018-03-04T22:11:39.346Z,6.00
2018-03-04T22:14:06.909Z,5.93
2018-03-04T22:16:34.486Z,5.67
2018-03-04T22:19:02.044Z,5.30
2018-03-04T22:21:29.627Z,7.00
2018-03-04T22:23:57.263Z,5.67
2018-03-04T22:26:24.856Z,5.37
2018-03-04T22:28:53.182Z,5.73
2018-03-04T22:31:20.750Z,5.77
2018-03-04T22:33:48.316Z,5.83
2018-03-04T22:36:15.976Z,5.77
2018-03-04T22:38:43.540Z,6.43
2018-03-04T22:41:11.105Z,5.27
2018-03-04T22:43:38.672Z,5.67
2018-03-04T22:46:06.232Z,5.60
2018-03-04T22:48:33.867Z,5.40
2018-03-04T22:51:01.440Z,5.40
2018-03-04T22:53:28.999Z,5.13
2018-03-04T22:55:56.564Z,5.50
2018-03-04T22:58:24.129Z,5.43
2018-03-04T23:00:51.752Z,5.50
2018-03-04T23:03:19.311Z,6.13
2018-03-04T23:05:47.075Z,5.47
2018-03-04T23:08:14.734Z,5.27
2018-03-04T23:10:42.295Z,6.47
2018-03-04T23:13:09.867Z,5.37
2018-03-04T23:15:56.333Z,4.57
2018-03-04T23:18:23.895Z,5.13
2018-03-04T23:20:51.464Z,5.20
2018-03-04T23:23:19.029Z,5.20
2018-03-04T23:25:46.931Z,5.50
2018-03-04T23:28:14.495Z,5.70
2018-03-04T23:30:42.055Z,5.33
2018-03-04T23:33:10.378Z,5.37
2018-03-04T23:35:38.056Z,6.03
2018-03-04T23:38:05.796Z,5.50
2018-03-04T23:40:33.362Z,5.57
2018-03-04T23:43:00.916Z,5.50
2018-03-04T23:45:28.578Z,5.17
2018-03-04T23:47:56.227Z,5.60
2018-03-04T23:50:23.896Z,5.20
2018-03-04T23:52:51.462Z,5.53
2018-03-04T23:55:19.051Z,5.47
2018-03-04T23:57:46.608Z,5.50
